Terrace, Canada
Current Conditions -  °F | °C
As of 7:00 PM on Sunday 21 Dec 2014 (Local Time) from CYXT Reporting Station
Haze Haze  
Wind Chill: 34°   Ceiling: 200
Heat Index: 34°   Visibility: 0.62mi
Dew Point: 32°   Wind: 0mph
Humidity: 93%   Direction: NA
Pressure: 29.71"   Gusts: NA
Location:  54.52°N, 128.6°W
Report Text: CYXT 220300Z 00000KT 5/8SM BR OVC002 01/00 A2971 RMK FG4SF4 VIS VRB 1/2-3/4 INTMT -RA SLP071
Loading
Personal Weather Stations






























Interactive Weather Map New forecast layout! Learn more

10-Day Weather Forecast

Advertisements
Track Severe Weather on mobile